Time;durP1;ratioP1;P1;durP2;ratioP2;P2;SDS_P1;SDS_P2;PMS_P1;PMS_P2;Temp;Humidity;BMP_temperature;BMP_pressure;BME280_temperature;BME280_humidity;BME280_pressure;Samples;Min_cycle;Max_cycle;Signal;HPM_P1;HPM_P2
2022/10/01 00:00:13;;;;;;;0.80;0.80;;;9.10;99.90;;;;;;5073933;28;20937;-74
2022/10/01 00:02:39;;;;;;;0.67;0.67;;;9.10;99.90;;;;;;5073577;28;20454;-74
2022/10/01 00:05:09;;;;;;;0.80;0.80;;;9.10;99.90;;;;;;5073818;28;20465;-74
2022/10/01 00:07:38;;;;;;;1.53;0.70;;;9.10;99.90;;;;;;5073012;28;20441;-74
2022/10/01 00:10:07;;;;;;;0.37;0.30;;;9.10;99.90;;;;;;5073811;28;20434;-74
2022/10/01 00:12:34;;;;;;;0.43;0.43;;;9.10;99.90;;;;;;5073446;28;20897;-74
2022/10/01 00:15:02;;;;;;;1.50;0.70;;;9.10;99.90;;;;;;5073657;28;20461;-74
2022/10/01 00:17:28;;;;;;;1.63;1.03;;;9.10;99.90;;;;;;5073283;28;20901;-74
2022/10/01 00:19:55;;;;;;;0.57;0.57;;;9.10;99.90;;;;;;5073370;28;20449;-74
2022/10/01 00:22:22;;;;;;;0.93;0.70;;;9.10;99.90;;;;;;5073632;28;20450;-74
2022/10/01 00:24:49;;;;;;;0.63;0.63;;;9.10;99.90;;;;;;5073562;28;20464;-78
2022/10/01 00:27:17;;;;;;;0.70;0.63;;;9.10;99.90;;;;;;5073574;28;20445;-78
2022/10/01 00:29:44;;;;;;;1.27;0.67;;;9.10;99.90;;;;;;5073324;28;20969;-78
2022/10/01 00:32:10;;;;;;;0.60;0.60;;;9.00;99.90;;;;;;5073514;28;20481;-78
2022/10/01 00:34:37;;;;;;;0.60;0.40;;;9.00;99.90;;;;;;5073402;28;20465;-78
2022/10/01 00:37:04;;;;;;;1.43;0.50;;;9.00;99.90;;;;;;5073365;28;20485;-78
2022/10/01 00:39:31;;;;;;;0.70;0.47;;;9.00;99.90;;;;;;5073461;28;20458;-78
2022/10/01 00:41:57;;;;;;;0.83;0.70;;;8.90;99.90;;;;;;5073092;28;20451;-78
2022/10/01 00:44:32;;;;;;;0.50;0.50;;;8.90;99.90;;;;;;5073294;28;20469;-78
2022/10/01 00:47:09;;;;;;;0.60;0.40;;;8.90;99.90;;;;;;5073428;28;20487;-78
2022/10/01 00:49:37;;;;;;;0.63;0.63;;;9.00;99.90;;;;;;5073339;28;20429;-80
2022/10/01 00:52:08;;;;;;;1.90;0.77;;;9.00;99.90;;;;;;5073354;28;20809;-78
2022/10/01 00:54:40;;;;;;;1.00;0.50;;;9.00;99.90;;;;;;5073339;28;20530;-77
2022/10/01 00:57:08;;;;;;;0.40;0.40;;;9.00;99.90;;;;;;5072882;28;20531;-77
2022/10/01 00:59:36;;;;;;;0.80;0.70;;;9.00;99.90;;;;;;5073571;28;20429;-77
2022/10/01 01:02:03;;;;;;;1.00;0.60;;;9.00;99.90;;;;;;5073199;28;20472;-77
2022/10/01 01:04:30;;;;;;;0.67;0.67;;;9.00;99.90;;;;;;5073098;28;20465;-77
2022/10/01 01:07:00;;;;;;;0.50;0.50;;;9.00;99.90;;;;;;5073142;28;20449;-77
2022/10/01 01:09:32;;;;;;;1.10;0.57;;;9.00;99.90;;;;;;5073109;28;20460;-77
2022/10/01 01:12:08;;;;;;;1.03;0.80;;;9.00;99.90;;;;;;5072807;28;20437;-77
2022/10/01 01:14:44;;;;;;;1.67;0.87;;;9.00;99.90;;;;;;5073035;28;20469;-77
2022/10/01 01:17:18;;;;;;;2.27;0.73;;;8.90;99.90;;;;;;5072758;28;20989;-77
2022/10/01 01:20:06;;;;;;;0.60;0.60;;;8.90;99.90;;;;;;5076355;28;20769;-77
2022/10/01 01:22:38;;;;;;;0.50;0.50;;;8.90;99.90;;;;;;5077058;28;20434;-77
2022/10/01 01:25:08;;;;;;;1.33;0.50;;;8.90;99.90;;;;;;5076573;28;20886;-77
2022/10/01 01:27:39;;;;;;;0.80;0.63;;;8.90;99.90;;;;;;5076444;28;20426;-77
2022/10/01 01:30:10;;;;;;;0.93;0.70;;;8.90;99.90;;;;;;5076919;28;20429;-77
2022/10/01 01:32:49;;;;;;;2.73;0.67;;;8.90;99.90;;;;;;5076851;28;20430;-77
2022/10/01 01:35:21;;;;;;;0.90;0.60;;;8.80;99.90;;;;;;5076416;28;20807;-77
2022/10/01 01:37:54;;;;;;;0.87;0.73;;;8.90;99.90;;;;;;5076684;28;20519;-77
2022/10/01 01:40:21;;;;;;;0.80;0.57;;;8.80;99.90;;;;;;5076395;28;20465;-80
2022/10/01 01:42:50;;;;;;;0.80;0.80;;;8.80;99.90;;;;;;5076888;28;20445;-74
2022/10/01 01:45:22;;;;;;;0.50;0.50;;;8.80;99.90;;;;;;5076226;28;20984;-77
2022/10/01 01:47:54;;;;;;;0.50;0.50;;;8.80;99.90;;;;;;5076539;28;20426;-77
2022/10/01 01:50:24;;;;;;;1.30;1.20;;;8.80;99.90;;;;;;5076490;28;20785;-77
2022/10/01 01:52:51;;;;;;;2.63;0.47;;;8.90;99.90;;;;;;5076760;28;20240;-78
2022/10/01 01:55:19;;;;;;;2.70;0.70;;;8.80;99.90;;;;;;5076305;28;20473;-74
2022/10/01 01:57:46;;;;;;;1.43;0.53;;;8.80;99.90;;;;;;5076275;28;20484;-78
2022/10/01 02:00:13;;;;;;;2.63;0.67;;;8.80;99.90;;;;;;5076305;28;20453;-78
2022/10/01 02:02:47;;;;;;;0.70;0.70;;;8.80;99.90;;;;;;5076221;28;20477;-74
2022/10/01 02:05:17;;;;;;;0.50;0.40;;;8.80;99.90;;;;;;5076160;28;20464;-74
2022/10/01 02:08:15;;;;;;;3.37;1.33;;;8.70;99.90;;;;;;5076216;28;20199;-74
2022/10/01 02:10:56;;;;;;;0.70;0.70;;;8.70;99.90;;;;;;5075894;28;20906;-78
2022/10/01 02:13:37;;;;;;;0.30;0.30;;;8.70;99.90;;;;;;5076107;28;20434;-80
2022/10/01 02:16:17;;;;;;;0.50;0.50;;;8.70;99.90;;;;;;5076032;28;20441;-76
2022/10/01 02:18:49;;;;;;;0.40;0.40;;;8.70;99.90;;;;;;5075614;28;20837;-77
2022/10/01 02:21:21;;;;;;;0.40;0.40;;;8.80;99.90;;;;;;5075987;28;20932;-78
2022/10/01 02:23:56;;;;;;;0.57;0.57;;;8.80;99.90;;;;;;5075895;28;20469;-78
2022/10/01 02:26:26;;;;;;;1.23;0.60;;;8.80;99.90;;;;;;5075929;28;20463;-74
2022/10/01 02:28:57;;;;;;;0.60;0.40;;;8.80;99.90;;;;;;5075664;28;20481;-81
2022/10/01 02:31:25;;;;;;;1.07;0.53;;;8.80;99.90;;;;;;5075416;28;20858;-78
2022/10/01 02:33:55;;;;;;;0.70;0.70;;;8.80;99.90;;;;;;5075599;28;20469;-81
2022/10/01 02:36:23;;;;;;;0.50;0.50;;;8.80;99.90;;;;;;5075665;28;20822;-78
2022/10/01 02:38:53;;;;;;;1.30;0.53;;;8.80;99.90;;;;;;5075803;28;20481;-76
2022/10/01 02:41:24;;;;;;;0.60;0.50;;;8.90;99.90;;;;;;5075519;28;20445;-73
2022/10/01 02:43:56;;;;;;;0.53;0.53;;;8.80;99.90;;;;;;5075438;28;20469;-73
2022/10/01 02:46:33;;;;;;;0.60;0.60;;;8.90;99.90;;;;;;5075211;28;20815;-80
2022/10/01 02:49:01;;;;;;;0.97;0.60;;;8.90;99.90;;;;;;5075438;28;20440;-78
2022/10/01 02:51:35;;;;;;;0.60;0.43;;;8.90;99.90;;;;;;5075393;28;20449;-78
2022/10/01 02:54:12;;;;;;;1.33;0.80;;;8.90;99.90;;;;;;5075564;28;20227;-78
2022/10/01 02:59:24;;;;;;;0.67;0.50;;;8.90;99.90;;;;;;5075289;28;20452;-77
2022/10/01 03:01:51;;;;;;;0.70;0.70;;;8.90;99.90;;;;;;5075426;28;20441;-78
2022/10/01 03:04:19;;;;;;;0.40;0.40;;;8.90;99.90;;;;;;5075250;28;20484;-78
2022/10/01 03:06:46;;;;;;;0.50;0.50;;;8.80;99.90;;;;;;5074809;28;20787;-78
2022/10/01 03:09:13;;;;;;;0.33;0.30;;;8.80;99.90;;;;;;5075075;28;20438;-78
2022/10/01 03:11:41;;;;;;;1.30;0.97;;;8.80;99.90;;;;;;5075036;28;20464;-74
2022/10/01 03:14:08;;;;;;;0.40;0.40;;;8.80;99.90;;;;;;5074523;28;20477;-74
2022/10/01 03:16:35;;;;;;;0.60;0.50;;;8.80;99.90;;;;;;5074572;28;20980;-78
2022/10/01 03:19:02;;;;;;;0.50;0.40;;;8.80;99.90;;;;;;5074748;28;20477;-78
2022/10/01 03:21:30;;;;;;;0.70;0.40;;;8.80;99.90;;;;;;5074808;28;20472;-78
2022/10/01 03:23:57;;;;;;;1.13;0.63;;;8.80;99.90;;;;;;5074658;28;20457;-78
2022/10/01 03:26:23;;;;;;;2.57;0.70;;;8.90;99.90;;;;;;5074687;28;20445;-77
2022/10/01 03:28:50;;;;;;;2.70;0.50;;;8.90;99.90;;;;;;5074167;28;20484;-77
2022/10/01 03:31:17;;;;;;;0.40;0.30;;;8.90;99.90;;;;;;5074281;28;20448;-81
2022/10/01 03:33:44;;;;;;;1.80;0.70;;;8.90;99.90;;;;;;5074469;28;20469;-80
2022/10/01 03:36:11;;;;;;;0.50;0.33;;;8.90;99.90;;;;;;5074536;28;20468;-78
2022/10/01 03:38:39;;;;;;;0.53;0.40;;;8.90;99.90;;;;;;5074342;28;20473;-74
2022/10/01 03:41:06;;;;;;;1.00;0.40;;;8.90;99.90;;;;;;5074335;28;20460;-74
2022/10/01 03:43:33;;;;;;;0.70;0.53;;;8.90;99.90;;;;;;5074117;28;20472;-74
2022/10/01 03:46:00;;;;;;;0.40;0.40;;;8.90;99.90;;;;;;5074279;28;20507;-80
2022/10/01 03:48:27;;;;;;;0.67;0.30;;;8.90;99.90;;;;;;5073881;28;21002;-81
2022/10/01 03:50:55;;;;;;;2.90;0.70;;;8.90;99.90;;;;;;5074204;28;20449;-80
2022/10/01 03:53:21;;;;;;;0.40;0.40;;;8.90;99.90;;;;;;5074124;28;20818;-74
2022/10/01 03:55:50;;;;;;;0.33;0.33;;;8.90;99.90;;;;;;5074157;28;20445;-74
2022/10/01 03:58:17;;;;;;;1.10;0.53;;;8.80;99.90;;;;;;5073970;28;20477;-74
2022/10/01 04:00:45;;;;;;;1.73;1.23;;;8.80;99.90;;;;;;5073691;28;20449;-74
2022/10/01 04:03:12;;;;;;;0.40;0.40;;;8.90;99.90;;;;;;5073606;28;20446;-74
2022/10/01 04:05:39;;;;;;;0.53;0.50;;;8.90;99.90;;;;;;5074207;28;20453;-78
2022/10/01 04:08:06;;;;;;;0.40;0.40;;;8.90;99.90;;;;;;5073936;28;20441;-78
2022/10/01 04:10:33;;;;;;;0.50;0.30;;;8.80;99.90;;;;;;5073915;28;20447;-74
2022/10/01 04:13:02;;;;;;;0.40;0.30;;;8.80;99.90;;;;;;5073707;28;20449;-78
2022/10/01 04:15:29;;;;;;;0.80;0.40;;;8.80;99.90;;;;;;5073678;28;20564;-78
2022/10/01 04:17:56;;;;;;;0.40;0.40;;;8.80;99.90;;;;;;5073351;28;21000;-80
2022/10/01 04:20:23;;;;;;;0.40;0.40;;;8.80;99.90;;;;;;5073748;28;20483;-78
2022/10/01 04:22:50;;;;;;;0.77;0.60;;;8.80;99.90;;;;;;5073444;28;20964;-74
2022/10/01 04:25:17;;;;;;;2.30;0.40;;;8.90;99.90;;;;;;5073224;28;20469;-74
2022/10/01 04:27:55;;;;;;;0.40;0.40;;;8.90;99.90;;;;;;5073236;28;20977;-81
2022/10/01 04:30:24;;;;;;;0.60;0.53;;;8.90;99.90;;;;;;5073643;28;20459;-78
2022/10/01 04:32:51;;;;;;;0.80;0.40;;;8.90;99.90;;;;;;5073544;28;20460;-74
2022/10/01 04:35:17;;;;;;;0.40;0.40;;;8.90;99.90;;;;;;5073481;28;20466;-78
2022/10/01 04:37:44;;;;;;;0.67;0.40;;;8.90;99.90;;;;;;5073131;28;20481;-77
2022/10/01 04:40:11;;;;;;;0.70;0.70;;;8.90;99.90;;;;;;5073115;28;20948;-77
2022/10/01 04:42:40;;;;;;;0.90;0.40;;;8.90;99.90;;;;;;5073084;28;20941;-77
2022/10/01 04:45:09;;;;;;;0.50;0.40;;;8.80;99.90;;;;;;5073334;28;20476;-77
2022/10/01 04:47:37;;;;;;;0.70;0.40;;;8.90;99.90;;;;;;5073463;28;20449;-78
2022/10/01 04:50:04;;;;;;;0.40;0.40;;;8.90;99.90;;;;;;5073289;28;20446;-78
2022/10/01 04:52:31;;;;;;;1.37;0.50;;;8.90;99.90;;;;;;5073326;28;20445;-78
2022/10/01 04:54:57;;;;;;;1.70;0.60;;;8.90;99.90;;;;;;5072935;28;20470;-78
2022/10/01 04:57:24;;;;;;;0.40;0.30;;;8.90;99.90;;;;;;5073191;28;20791;-77
2022/10/01 04:59:51;;;;;;;0.30;0.30;;;8.90;99.90;;;;;;5073333;28;20437;-77
2022/10/01 05:02:18;;;;;;;0.40;0.40;;;8.90;99.90;;;;;;5073178;28;20441;-74
2022/10/01 05:04:46;;;;;;;0.40;0.40;;;8.90;99.90;;;;;;5073249;28;20464;-77
2022/10/01 05:07:13;;;;;;;0.97;0.60;;;8.90;99.90;;;;;;5073204;28;20471;-77
2022/10/01 05:09:40;;;;;;;0.30;0.30;;;9.00;99.90;;;;;;5073190;28;20441;-78
2022/10/01 05:12:07;;;;;;;0.40;0.40;;;9.00;99.90;;;;;;5072931;28;20457;-78
2022/10/01 05:14:34;;;;;;;0.50;0.40;;;9.00;99.90;;;;;;5073052;28;20531;-78
2022/10/01 05:17:00;;;;;;;0.50;0.47;;;9.00;99.90;;;;;;5073122;28;20449;-81
2022/10/01 05:19:28;;;;;;;0.40;0.37;;;9.00;99.90;;;;;;5073241;28;20481;-81
2022/10/01 05:21:56;;;;;;;0.40;0.40;;;9.00;99.90;;;;;;5073112;28;20453;-78
2022/10/01 05:24:23;;;;;;;0.50;0.40;;;9.10;99.90;;;;;;5073210;28;20461;-74
2022/10/01 05:26:52;;;;;;;0.77;0.77;;;9.10;99.90;;;;;;5073027;28;20445;-78
2022/10/01 05:29:19;;;;;;;0.93;0.67;;;9.00;99.90;;;;;;5072814;28;20481;-77
2022/10/01 05:31:46;;;;;;;0.83;0.83;;;9.10;99.90;;;;;;5072968;28;20452;-77
2022/10/01 05:34:13;;;;;;;0.50;0.50;;;9.10;99.90;;;;;;5072896;28;20461;-74
2022/10/01 05:36:39;;;;;;;0.30;0.30;;;9.10;99.90;;;;;;5072565;28;20456;-77
2022/10/01 05:39:07;;;;;;;0.40;0.30;;;9.10;99.90;;;;;;5072809;28;20485;-74
2022/10/01 05:41:34;;;;;;;0.40;0.30;;;9.10;99.90;;;;;;5072558;28;20446;-73
2022/10/01 05:44:02;;;;;;;0.40;0.40;;;9.10;99.90;;;;;;5072762;28;20473;-73
2022/10/01 05:46:30;;;;;;;0.30;0.30;;;9.20;99.90;;;;;;5072905;28;20450;-73
2022/10/01 05:48:57;;;;;;;0.47;0.47;;;9.10;99.90;;;;;;5072761;28;20445;-73
2022/10/01 05:51:24;;;;;;;0.70;0.60;;;9.20;99.90;;;;;;5072752;28;20449;-76
2022/10/01 05:53:53;;;;;;;0.40;0.30;;;9.20;99.90;;;;;;5072419;28;20469;-73
2022/10/01 05:56:22;;;;;;;1.03;0.30;;;9.20;99.90;;;;;;5072769;28;20468;-81
2022/10/01 05:58:49;;;;;;;0.40;0.33;;;9.30;99.90;;;;;;5072604;28;20523;-80
2022/10/01 06:01:16;;;;;;;1.00;0.60;;;9.20;99.90;;;;;;5072669;28;20445;-81
2022/10/01 06:03:43;;;;;;;0.40;0.37;;;9.20;99.90;;;;;;5072576;28;20465;-77
2022/10/01 06:06:09;;;;;;;0.60;0.60;;;9.20;99.90;;;;;;5073913;28;20460;-77
2022/10/01 06:08:37;;;;;;;0.90;0.40;;;9.20;99.90;;;;;;5077237;28;20445;-76
2022/10/01 06:11:04;;;;;;;0.30;0.30;;;9.20;99.90;;;;;;5076220;28;20444;-81
2022/10/01 06:13:35;;;;;;;0.43;0.40;;;9.20;99.90;;;;;;5075740;28;20452;-80
2022/10/01 06:16:02;;;;;;;0.60;0.60;;;9.20;99.90;;;;;;5076119;28;20437;-82
2022/10/01 06:18:28;;;;;;;0.60;0.60;;;9.20;99.90;;;;;;5075665;28;20480;-76
2022/10/01 06:20:57;;;;;;;0.60;0.60;;;9.20;99.90;;;;;;5076080;28;20451;-77
2022/10/01 06:23:24;;;;;;;2.67;0.60;;;9.20;99.90;;;;;;5075921;28;20838;-77
2022/10/01 06:25:50;;;;;;;0.33;0.33;;;9.10;99.90;;;;;;5075955;28;20453;-79
2022/10/01 06:28:18;;;;;;;0.40;0.40;;;9.10;99.90;;;;;;5075633;28;20859;-77
2022/10/01 06:30:46;;;;;;;0.30;0.30;;;9.10;99.90;;;;;;5075457;28;20454;-77
2022/10/01 06:33:14;;;;;;;0.60;0.47;;;9.20;99.90;;;;;;5075694;28;20449;-76
2022/10/01 06:35:42;;;;;;;0.40;0.30;;;9.20;99.90;;;;;;5075638;28;20448;-80
2022/10/01 06:38:10;;;;;;;0.60;0.60;;;9.20;99.90;;;;;;5075859;28;20441;-77
2022/10/01 06:40:38;;;;;;;0.90;0.40;;;9.20;99.90;;;;;;5075724;28;20445;-80
2022/10/01 06:43:07;;;;;;;0.30;0.30;;;9.30;99.90;;;;;;5075262;28;20934;-77
2022/10/01 06:45:38;;;;;;;1.13;1.03;;;9.30;99.90;;;;;;5075161;28;20835;-80
2022/10/01 06:48:06;;;;;;;0.90;0.30;;;9.30;99.90;;;;;;5075648;28;20434;-77
2022/10/01 06:50:34;;;;;;;0.97;0.40;;;9.40;99.90;;;;;;5075448;28;20457;-80
2022/10/01 06:53:01;;;;;;;0.40;0.30;;;9.40;99.90;;;;;;5075343;28;20441;-80
2022/10/01 06:55:30;;;;;;;0.50;0.50;;;9.40;99.90;;;;;;5074949;28;20975;-81
2022/10/01 06:57:59;;;;;;;0.50;0.30;;;9.40;99.90;;;;;;5074997;28;20450;-81
2022/10/01 07:00:27;;;;;;;0.53;0.53;;;9.40;99.90;;;;;;5075431;28;20887;-81
2022/10/01 07:02:55;;;;;;;0.30;0.30;;;9.50;99.90;;;;;;5075293;28;20437;-81
2022/10/01 07:05:24;;;;;;;0.63;0.60;;;9.50;99.90;;;;;;5075242;28;20468;-79
2022/10/01 07:07:52;;;;;;;0.40;0.40;;;9.50;99.90;;;;;;5075102;28;20457;-81
2022/10/01 07:10:20;;;;;;;0.30;0.30;;;9.60;99.90;;;;;;5075029;28;20450;-80
2022/10/01 07:12:48;;;;;;;0.87;0.87;;;9.70;99.90;;;;;;5074960;28;20481;-78
2022/10/01 07:15:16;;;;;;;0.40;0.40;;;9.70;99.90;;;;;;5074964;28;20492;-74
2022/10/01 07:17:44;;;;;;;0.40;0.40;;;9.70;99.90;;;;;;5074529;28;20454;-74
2022/10/01 07:20:11;;;;;;;0.40;0.30;;;9.70;99.90;;;;;;5074728;28;20477;-78
2022/10/01 07:22:39;;;;;;;0.73;0.37;;;9.70;99.90;;;;;;5075261;28;20964;-78
2022/10/01 07:25:07;;;;;;;0.37;0.37;;;9.70;99.90;;;;;;5074696;28;20461;-74
2022/10/01 07:27:34;;;;;;;0.50;0.50;;;9.70;99.90;;;;;;5074516;28;20536;-78
2022/10/01 07:30:00;;;;;;;0.30;0.30;;;9.60;99.90;;;;;;5074658;28;20437;-79
2022/10/01 07:32:30;;;;;;;0.40;0.40;;;9.60;99.90;;;;;;5074554;28;20454;-78
2022/10/01 07:34:57;;;;;;;1.83;0.60;;;9.50;99.90;;;;;;5074186;28;20469;-74
2022/10/01 07:37:24;;;;;;;1.57;0.50;;;9.50;99.90;;;;;;5074565;28;20457;-78
2022/10/01 07:39:52;;;;;;;0.60;0.60;;;9.50;99.90;;;;;;5074408;28;20504;-76
2022/10/01 07:42:20;;;;;;;1.23;0.30;;;9.50;99.90;;;;;;5074196;28;20445;-74
2022/10/01 07:44:47;;;;;;;0.50;0.50;;;9.40;99.90;;;;;;5074285;28;20469;-78
2022/10/01 07:47:13;;;;;;;0.40;0.30;;;9.40;99.90;;;;;;5074399;28;20445;-79
2022/10/01 07:49:40;;;;;;;0.30;0.30;;;9.40;99.90;;;;;;5073865;28;20491;-79
2022/10/01 07:52:07;;;;;;;0.30;0.30;;;9.30;99.90;;;;;;5074511;28;20437;-75
2022/10/01 07:54:33;;;;;;;0.40;0.37;;;9.40;99.90;;;;;;5074318;28;20830;-78
2022/10/01 07:57:01;;;;;;;0.30;0.30;;;9.30;99.90;;;;;;5074161;28;20441;-78
2022/10/01 07:59:30;;;;;;;3.07;1.17;;;9.20;99.90;;;;;;5073990;28;20846;-75
2022/10/01 08:01:56;;;;;;;0.40;0.30;;;9.20;99.90;;;;;;5074173;28;20458;-78
2022/10/01 08:07:08;;;;;;;1.10;0.30;;;9.10;99.90;;;;;;5073991;28;20425;-80
2022/10/01 08:09:35;;;;;;;0.40;0.30;;;9.10;99.90;;;;;;5073601;28;20453;-75
2022/10/01 08:12:03;;;;;;;1.07;0.50;;;9.10;99.90;;;;;;5073866;28;20456;-78
2022/10/01 08:14:30;;;;;;;0.40;0.37;;;9.10;99.90;;;;;;5074116;28;20465;-78
2022/10/01 08:16:57;;;;;;;0.40;0.30;;;9.00;99.90;;;;;;5073758;28;20453;-75
2022/10/01 08:19:24;;;;;;;0.87;0.30;;;9.00;99.90;;;;;;5073581;28;20490;-75
2022/10/01 08:21:51;;;;;;;1.00;0.40;;;9.00;99.90;;;;;;5073743;28;20515;-78
2022/10/01 08:24:18;;;;;;;0.40;0.40;;;8.90;99.90;;;;;;5073244;28;21040;-78
2022/10/01 08:26:45;;;;;;;0.30;0.30;;;8.90;99.90;;;;;;5073621;28;20445;-75
2022/10/01 08:29:13;;;;;;;0.93;0.93;;;8.90;99.90;;;;;;5072835;28;20474;-79
2022/10/01 08:31:40;;;;;;;0.70;0.50;;;8.80;99.90;;;;;;5073568;28;20446;-75
2022/10/01 08:34:07;;;;;;;0.70;0.70;;;8.90;99.90;;;;;;5073545;28;20458;-78
2022/10/01 08:36:34;;;;;;;0.30;0.20;;;9.00;99.90;;;;;;5073509;28;20452;-77
2022/10/01 08:39:01;;;;;;;0.60;0.30;;;9.00;99.90;;;;;;5073466;28;20513;-75
2022/10/01 08:41:42;;;;;;;0.50;0.50;;;9.00;99.90;;;;;;5073507;28;20449;-75
2022/10/01 08:44:18;;;;;;;0.50;0.40;;;9.00;99.90;;;;;;5073436;28;20536;-75
2022/10/01 08:46:45;;;;;;;0.30;0.30;;;9.00;99.90;;;;;;5073620;28;20444;-75
2022/10/01 08:49:19;;;;;;;0.30;0.20;;;9.00;99.90;;;;;;5073081;28;20940;-75
2022/10/01 08:51:52;;;;;;;0.50;0.40;;;9.10;99.90;;;;;;5073384;28;20434;-75
2022/10/01 08:54:29;;;;;;;0.40;0.40;;;9.20;99.90;;;;;;5073347;28;20461;-79
2022/10/01 08:57:00;;;;;;;0.50;0.40;;;9.20;99.90;;;;;;5073372;28;20425;-78
2022/10/01 08:59:38;;;;;;;2.80;0.50;;;9.30;99.90;;;;;;5073354;28;20462;-78
2022/10/01 09:02:20;;;;;;;0.40;0.30;;;9.40;99.90;;;;;;5073302;28;20453;-78
2022/10/01 09:04:48;;;;;;;0.60;0.50;;;9.40;99.90;;;;;;5073183;28;20476;-78
2022/10/01 09:07:28;;;;;;;0.50;0.40;;;9.30;99.90;;;;;;5073155;28;20458;-80
2022/10/01 09:10:17;;;;;;;0.30;0.30;;;9.30;99.90;;;;;;5072944;28;20932;-79
2022/10/01 09:12:50;;;;;;;0.30;0.30;;;9.40;99.90;;;;;;5073226;28;20441;-79
2022/10/01 09:15:25;;;;;;;0.30;0.30;;;9.50;99.90;;;;;;5073191;28;20465;-79
2022/10/01 09:18:05;;;;;;;0.40;0.30;;;9.60;99.90;;;;;;5073197;28;20448;-79
2022/10/01 09:20:36;;;;;;;0.30;0.20;;;9.50;99.90;;;;;;5073082;28;20473;-76
2022/10/01 09:23:19;;;;;;;0.40;0.40;;;9.60;99.90;;;;;;5073160;28;20437;-76
2022/10/01 09:25:50;;;;;;;5.17;3.23;;;9.70;99.90;;;;;;5073197;28;20487;-79
2022/10/01 09:28:20;;;;;;;0.63;0.40;;;9.70;99.90;;;;;;5072732;28;21050;-78
2022/10/01 09:30:54;;;;;;;0.30;0.20;;;9.70;99.90;;;;;;5074023;28;20433;-78
2022/10/01 09:33:23;;;;;;;0.40;0.30;;;9.70;99.90;;;;;;5073041;28;20899;-79
2022/10/01 09:35:55;;;;;;;0.30;0.20;;;9.80;99.90;;;;;;5072936;28;20456;-79
2022/10/01 09:38:29;;;;;;;0.80;0.40;;;9.80;99.90;;;;;;5073050;28;20437;-80
2022/10/01 09:40:57;;;;;;;3.43;0.60;;;9.80;99.90;;;;;;5075385;28;20469;-80
2022/10/01 09:43:27;;;;;;;0.40;0.30;;;9.90;99.90;;;;;;5076544;28;20457;-79
2022/10/01 09:45:55;;;;;;;0.30;0.30;;;9.90;99.90;;;;;;5076589;28;20452;-78
2022/10/01 09:48:31;;;;;;;0.60;0.60;;;10.00;99.90;;;;;;5076254;28;20440;-78
2022/10/01 09:51:03;;;;;;;0.87;0.87;;;10.10;99.90;;;;;;5076275;28;20901;-75
2022/10/01 09:53:36;;;;;;;0.57;0.50;;;10.00;99.90;;;;;;5076536;28;20464;-75
2022/10/01 09:56:11;;;;;;;0.30;0.30;;;10.00;99.90;;;;;;5076991;28;20450;-81
2022/10/01 09:58:40;;;;;;;0.30;0.30;;;10.00;99.90;;;;;;5076491;28;20785;-76
2022/10/01 10:01:20;;;;;;;0.80;0.53;;;10.00;99.90;;;;;;5076289;28;20840;-75
2022/10/01 10:03:54;;;;;;;1.17;0.30;;;10.00;99.90;;;;;;5076266;28;20476;-78
2022/10/01 10:06:26;;;;;;;0.30;0.30;;;10.00;99.90;;;;;;5076429;28;20429;-78
2022/10/01 10:08:55;;;;;;;0.90;0.40;;;10.10;99.90;;;;;;5076605;28;20467;-76
2022/10/01 10:11:24;;;;;;;0.30;0.30;;;10.10;99.90;;;;;;5076230;28;20449;-77
2022/10/01 10:13:53;;;;;;;0.30;0.30;;;10.00;99.90;;;;;;5076148;28;20469;-78
2022/10/01 10:16:26;;;;;;;0.30;0.30;;;10.10;99.90;;;;;;5076248;28;20425;-78
2022/10/01 10:18:55;;;;;;;0.40;0.30;;;10.10;99.90;;;;;;5075708;28;20817;-79
2022/10/01 10:21:27;;;;;;;0.30;0.20;;;10.20;99.90;;;;;;5075860;28;20891;-75
2022/10/01 10:23:56;;;;;;;0.30;0.20;;;10.10;99.90;;;;;;5075819;28;20473;-77
2022/10/01 10:26:28;;;;;;;0.53;0.30;;;10.10;99.90;;;;;;5075899;28;20449;-77
2022/10/01 10:28:56;;;;;;;0.40;0.30;;;10.10;99.90;;;;;;5075427;28;20481;-75
2022/10/01 10:31:26;;;;;;;0.30;0.30;;;10.10;99.90;;;;;;5075886;28;20438;-77
2022/10/01 10:33:56;;;;;;;0.30;0.30;;;10.20;99.90;;;;;;5075802;28;20484;-79
2022/10/01 10:36:27;;;;;;;0.30;0.30;;;10.20;99.90;;;;;;5075800;28;20430;-78
2022/10/01 10:38:54;;;;;;;0.30;0.30;;;10.20;99.90;;;;;;5076885;28;20937;-79
2022/10/01 10:41:25;;;;;;;0.30;0.30;;;10.30;99.90;;;;;;5075502;28;20492;-78
2022/10/01 10:43:56;;;;;;;0.30;0.30;;;10.30;99.90;;;;;;5075585;28;20473;-78
2022/10/01 10:46:30;;;;;;;0.30;0.30;;;10.40;99.90;;;;;;5075598;28;20876;-75
2022/10/01 10:49:04;;;;;;;0.30;0.30;;;10.30;99.90;;;;;;5074374;28;20849;-75
2022/10/01 10:51:50;;;;;;;0.40;0.30;;;10.30;99.90;;;;;;5074754;28;20417;-75
2022/10/01 10:54:19;;;;;;;0.37;0.30;;;10.20;99.90;;;;;;5075060;28;20497;-77
2022/10/01 10:57:01;;;;;;;0.67;0.30;;;10.30;99.90;;;;;;5075386;28;20448;-75
2022/10/01 10:59:30;;;;;;;0.30;0.30;;;10.40;99.90;;;;;;5075233;28;20440;-75
2022/10/01 11:01:59;;;;;;;0.40;0.40;;;10.30;99.90;;;;;;5075276;28;20453;-79
2022/10/01 11:04:38;;;;;;;0.30;0.20;;;10.50;99.90;;;;;;5074853;28;20472;-76
2022/10/01 11:07:05;;;;;;;1.27;0.40;;;10.50;99.90;;;;;;5075448;28;20434;-78
2022/10/01 11:09:46;;;;;;;0.30;0.30;;;10.50;99.90;;;;;;5075156;28;20445;-79
2022/10/01 11:12:28;;;;;;;0.30;0.20;;;10.50;99.90;;;;;;5075328;28;20425;-77
2022/10/01 11:15:09;;;;;;;0.40;0.30;;;10.40;99.90;;;;;;5075087;28;20474;-77
2022/10/01 11:17:55;;;;;;;0.30;0.30;;;10.50;99.90;;;;;;5075156;28;20434;-74
2022/10/01 11:20:33;;;;;;;0.30;0.20;;;10.50;99.90;;;;;;5074860;28;20466;-74
2022/10/01 11:23:16;;;;;;;1.83;0.67;;;10.50;99.90;;;;;;5074988;28;20426;-74
2022/10/01 11:25:52;;;;;;;0.40;0.30;;;10.50;99.90;;;;;;5075206;28;20438;-77
2022/10/01 11:28:36;;;;;;;0.60;0.60;;;10.60;99.90;;;;;;5074645;28;20523;-78
2022/10/01 11:31:11;;;;;;;0.40;0.40;;;10.60;99.90;;;;;;5074892;28;20807;-78
2022/10/01 11:33:52;;;;;;;0.30;0.20;;;10.60;99.90;;;;;;5074706;28;20468;-77
2022/10/01 11:36:26;;;;;;;0.30;0.30;;;10.50;99.90;;;;;;5074649;28;20430;-73
2022/10/01 11:38:58;;;;;;;0.30;0.30;;;10.60;99.90;;;;;;5074584;28;20434;-79
2022/10/01 11:41:30;;;;;;;0.30;0.30;;;10.60;99.90;;;;;;5074505;28;20465;-77
2022/10/01 11:44:01;;;;;;;0.40;0.20;;;10.60;99.90;;;;;;5074566;28;20474;-77
2022/10/01 11:46:38;;;;;;;0.40;0.40;;;10.60;99.90;;;;;;5074382;28;20441;-77
2022/10/01 11:49:34;;;;;;;0.87;0.30;;;10.70;99.90;;;;;;5074316;28;20444;-77
2022/10/01 11:52:09;;;;;;;0.30;0.20;;;10.60;99.90;;;;;;5074321;28;20440;-79
2022/10/01 11:54:41;;;;;;;0.67;0.40;;;10.60;99.90;;;;;;5074156;28;20461;-75
2022/10/01 12:00:05;;;;;;;0.30;0.20;;;10.60;99.90;;;;;;5053068;28;20475;-77
2022/10/01 12:02:39;;;;;;;0.40;0.30;;;10.70;99.90;;;;;;5074093;28;20434;-77
2022/10/01 12:05:15;;;;;;;0.30;0.30;;;10.70;99.90;;;;;;5074118;28;20461;-74
2022/10/01 12:07:48;;;;;;;0.30;0.30;;;10.80;99.90;;;;;;5074019;28;20433;-74
2022/10/01 12:10:28;;;;;;;0.30;0.30;;;10.90;99.90;;;;;;5073664;28;20928;-77
2022/10/01 12:13:01;;;;;;;0.50;0.40;;;11.00;99.90;;;;;;5073990;28;20430;-78
2022/10/01 12:15:32;;;;;;;0.50;0.30;;;11.10;99.90;;;;;;5074137;28;20452;-77
2022/10/01 12:18:04;;;;;;;0.40;0.30;;;11.20;99.90;;;;;;5073836;28;20434;-79
2022/10/01 12:20:37;;;;;;;0.30;0.20;;;11.30;99.90;;;;;;5073704;28;20470;-73
2022/10/01 12:23:07;;;;;;;0.30;0.30;;;11.40;99.90;;;;;;5074777;28;20754;-77
2022/10/01 12:25:43;;;;;;;0.30;0.30;;;11.30;99.90;;;;;;5073987;28;20479;-74
2022/10/01 12:28:13;;;;;;;0.30;0.30;;;11.40;99.90;;;;;;5073511;28;20503;-74
2022/10/01 12:30:46;;;;;;;0.30;0.23;;;11.30;99.90;;;;;;5073705;28;20505;-74
2022/10/01 12:33:41;;;;;;;0.30;0.30;;;11.50;99.90;;;;;;5073858;28;20444;-76
2022/10/01 12:36:21;;;;;;;0.43;0.40;;;11.30;99.90;;;;;;5073744;28;20513;-78
2022/10/01 12:39:00;;;;;;;0.37;0.27;;;11.40;99.90;;;;;;5073729;28;20814;-74
2022/10/01 12:41:41;;;;;;;0.40;0.40;;;11.40;99.90;;;;;;5073291;28;20893;-76
2022/10/01 12:44:46;;;;;;;0.50;0.40;;;11.40;99.90;;;;;;5073531;28;20461;-77
2022/10/01 12:47:27;;;;;;;0.30;0.20;;;11.50;99.90;;;;;;5042050;28;20464;-76
2022/10/01 12:50:03;;;;;;;0.30;0.30;;;11.50;99.90;;;;;;5073526;28;20433;-80
2022/10/01 12:52:43;;;;;;;0.30;0.30;;;11.60;99.90;;;;;;5073289;28;20893;-74
2022/10/01 12:55:23;;;;;;;0.40;0.30;;;11.60;99.90;;;;;;5073546;28;20465;-76
2022/10/01 12:58:01;;;;;;;0.40;0.40;;;11.80;99.90;;;;;;5073710;28;20426;-78
2022/10/01 13:00:32;;;;;;;6.60;2.33;;;11.80;99.90;;;;;;5073560;28;20465;-77
2022/10/01 13:03:36;;;;;;;1.67;0.47;;;11.80;99.90;;;;;;5073401;28;20473;-78
2022/10/01 13:06:19;;;;;;;4.40;1.90;;;11.90;99.90;;;;;;5073205;28;20980;-77
2022/10/01 13:08:58;;;;;;;2.30;0.90;;;12.00;99.90;;;;;;5072836;28;20931;-78
2022/10/01 13:11:39;;;;;;;0.40;0.40;;;12.10;99.90;;;;;;5073157;28;20426;-76
2022/10/01 13:14:11;;;;;;;4.83;1.33;;;12.10;99.90;;;;;;5072922;28;20774;-77
2022/10/01 13:16:44;;;;;;;0.40;0.30;;;12.10;99.90;;;;;;5077396;28;20444;-75
2022/10/01 13:19:16;;;;;;;0.50;0.40;;;12.10;99.90;;;;;;5077059;28;20520;-75
2022/10/01 13:21:56;;;;;;;0.90;0.80;;;12.10;99.90;;;;;;5077180;28;20474;-78